createdAt,value
2019-02-22T00:01:22.215Z,9.26
2019-02-22T00:03:49.712Z,9.23
2019-02-22T00:06:17.020Z,9.21
2019-02-22T00:08:44.424Z,9.23
2019-02-22T00:11:11.758Z,9.24
2019-02-22T00:13:39.085Z,9.18
2019-02-22T00:16:06.457Z,9.19
2019-02-22T00:18:33.859Z,9.22
2019-02-22T00:21:01.253Z,9.24
2019-02-22T00:23:28.569Z,9.28
2019-02-22T00:25:56.015Z,9.26
2019-02-22T00:28:23.441Z,9.28
2019-02-22T00:30:50.814Z,9.28
2019-02-22T00:33:18.123Z,9.28
2019-02-22T00:35:45.598Z,9.19
2019-02-22T00:38:12.904Z,9.19
2019-02-22T00:40:40.264Z,9.26
2019-02-22T00:43:07.609Z,9.25
2019-02-22T00:45:34.964Z,9.19
2019-02-22T00:48:02.363Z,9.17
2019-02-22T00:50:29.740Z,9.18
2019-02-22T00:52:57.069Z,9.07
2019-02-22T00:55:24.448Z,9.12
2019-02-22T00:57:51.815Z,9.08
2019-02-22T01:00:19.223Z,9.09
2019-02-22T01:02:46.975Z,9.11
2019-02-22T01:05:14.375Z,9.08
2019-02-22T01:07:41.821Z,9.02
2019-02-22T01:10:09.251Z,9.01
2019-02-22T01:12:36.881Z,8.97
2019-02-22T01:15:04.436Z,8.93
2019-02-22T01:17:31.772Z,8.88
2019-02-22T01:19:59.198Z,8.84
2019-02-22T01:22:26.571Z,8.82
2019-02-22T01:24:54.351Z,8.81
2019-02-22T01:27:21.796Z,8.78
2019-02-22T01:29:49.151Z,8.78
2019-02-22T01:32:16.571Z,8.80
2019-02-22T01:34:43.926Z,8.80
2019-02-22T01:37:11.356Z,8.84
2019-02-22T01:39:38.726Z,8.79
2019-02-22T01:42:06.199Z,8.78
2019-02-22T01:44:33.658Z,8.80
2019-02-22T01:47:01.090Z,8.85
2019-02-22T01:49:28.451Z,8.76
2019-02-22T01:51:55.932Z,8.79
2019-02-22T01:54:23.475Z,8.81
2019-02-22T01:56:51.030Z,8.78
2019-02-22T01:59:18.476Z,8.76
2019-02-22T02:01:45.881Z,8.83
2019-02-22T02:04:13.272Z,8.78
2019-02-22T02:06:40.702Z,8.74
2019-02-22T02:09:08.106Z,8.76
2019-02-22T02:11:35.602Z,8.79
2019-02-22T02:14:03.036Z,8.76
2019-02-22T02:16:30.514Z,8.83
2019-02-22T02:18:57.957Z,8.82
2019-02-22T02:21:25.421Z,8.81
2019-02-22T02:23:52.950Z,8.78
2019-02-22T02:26:20.387Z,8.70
2019-02-22T02:28:47.905Z,8.64
2019-02-22T02:31:15.354Z,8.78
2019-02-22T02:33:42.748Z,8.76
2019-02-22T02:36:10.206Z,8.74
2019-02-22T02:38:37.715Z,8.77
2019-02-22T02:41:10.838Z,8.74
2019-02-22T02:43:34.536Z,8.76
2019-02-22T02:46:01.942Z,8.72
2019-02-22T02:48:29.420Z,8.74
2019-02-22T02:50:56.818Z,8.71
2019-02-22T02:53:24.272Z,8.68
2019-02-22T02:55:51.700Z,8.73
2019-02-22T02:58:19.097Z,8.77
2019-02-22T03:00:46.504Z,8.70
2019-02-22T03:03:14.091Z,8.77
2019-02-22T03:05:53.635Z,8.72
2019-02-22T03:08:22.423Z,8.73
2019-02-22T03:10:49.923Z,8.65
2019-02-22T03:13:17.429Z,8.72
2019-02-22T03:15:45.216Z,8.74
2019-02-22T03:18:12.673Z,8.68
2019-02-22T03:20:40.072Z,8.70
2019-02-22T03:23:07.531Z,8.73
2019-02-22T03:25:34.979Z,8.71
2019-02-22T03:28:02.861Z,8.67
2019-02-22T03:30:30.296Z,8.62
2019-02-22T03:32:57.702Z,8.65
2019-02-22T03:35:25.186Z,8.65
2019-02-22T03:37:52.719Z,8.61
2019-02-22T03:40:20.112Z,8.65
2019-02-22T03:42:47.583Z,8.64
2019-02-22T03:45:14.942Z,8.59
2019-02-22T03:47:42.384Z,8.60
2019-02-22T03:50:09.909Z,8.66
2019-02-22T03:52:46.586Z,8.61
2019-02-22T03:55:13.983Z,8.64
2019-02-22T03:57:41.378Z,8.63
2019-02-22T04:00:09.267Z,8.58
2019-02-22T04:02:36.697Z,8.59
2019-02-22T04:05:04.798Z,8.53
2019-02-22T04:07:32.216Z,8.58
2019-02-22T04:09:59.645Z,8.53
2019-02-22T04:12:27.106Z,8.53
2019-02-22T04:14:54.567Z,8.55
2019-02-22T04:17:21.941Z,8.61
2019-02-22T04:19:49.388Z,8.62
2019-02-22T04:22:16.801Z,8.62
2019-02-22T04:24:44.341Z,8.63
2019-02-22T04:27:11.748Z,8.65
2019-02-22T04:29:39.223Z,8.70
2019-02-22T04:32:06.628Z,8.69
2019-02-22T04:34:34.251Z,8.64
2019-02-22T04:37:01.625Z,8.71
2019-02-22T04:39:29.046Z,8.63
2019-02-22T04:41:58.281Z,8.68
2019-02-22T04:44:25.756Z,8.64
2019-02-22T04:46:53.207Z,8.64
2019-02-22T04:49:20.646Z,8.70
2019-02-22T04:51:48.018Z,8.70
2019-02-22T04:54:15.456Z,8.69
2019-02-22T04:56:43.273Z,8.65
2019-02-22T04:59:10.741Z,8.70
2019-02-22T05:01:38.146Z,8.69
2019-02-22T05:04:07.001Z,8.66
2019-02-22T05:06:34.393Z,8.66
2019-02-22T05:09:01.911Z,8.69
2019-02-22T05:11:29.308Z,8.70
2019-02-22T05:13:56.762Z,8.71
2019-02-22T05:16:24.177Z,8.71
2019-02-22T05:18:51.607Z,8.65
2019-02-22T05:21:19.496Z,8.64
2019-02-22T05:23:46.969Z,8.62
2019-02-22T05:26:14.355Z,8.59
2019-02-22T05:28:41.786Z,8.62
2019-02-22T05:31:09.176Z,8.66
2019-02-22T05:33:36.759Z,8.70
2019-02-22T05:36:04.267Z,8.66
2019-02-22T05:38:31.681Z,8.64
2019-02-22T05:40:59.089Z,8.68
2019-02-22T05:43:26.458Z,8.72
2019-02-22T05:45:53.877Z,8.66
2019-02-22T05:48:21.243Z,8.61
2019-02-22T05:50:48.669Z,8.65
2019-02-22T05:53:16.046Z,8.61
2019-02-22T05:55:44.420Z,8.71
2019-02-22T05:58:11.946Z,8.75
2019-02-22T06:00:39.383Z,8.70
2019-02-22T06:03:06.838Z,8.59
2019-02-22T06:05:34.301Z,8.58
2019-02-22T06:08:01.696Z,8.68
2019-02-22T06:10:29.115Z,8.58
2019-02-22T06:12:57.136Z,8.58
2019-02-22T06:15:24.656Z,8.65
2019-02-22T06:17:52.054Z,8.72
2019-02-22T06:20:19.477Z,8.60
2019-02-22T06:22:46.856Z,8.58
2019-02-22T06:25:14.364Z,8.56
2019-02-22T06:27:41.747Z,8.54
2019-02-22T06:30:09.347Z,8.57
2019-02-22T06:32:36.721Z,8.55
2019-02-22T06:35:04.412Z,8.54
2019-02-22T06:37:31.811Z,8.67
2019-02-22T06:39:59.217Z,8.66
2019-02-22T06:42:26.581Z,8.59
2019-02-22T06:44:54.341Z,8.62
2019-02-22T06:47:22.882Z,8.66
2019-02-22T06:49:50.541Z,8.77
2019-02-22T06:52:17.987Z,8.76
2019-02-22T06:54:45.388Z,8.81
2019-02-22T06:57:12.805Z,8.75
2019-02-22T06:59:40.202Z,8.73
2019-02-22T07:02:07.591Z,8.82
2019-02-22T07:04:35.011Z,8.85
2019-02-22T07:07:02.586Z,8.87
2019-02-22T07:09:29.958Z,8.91
2019-02-22T07:12:02.626Z,8.87
2019-02-22T07:14:30.002Z,8.88
2019-02-22T07:16:57.420Z,8.88
2019-02-22T07:19:24.832Z,8.90
2019-02-22T07:21:53.185Z,8.99
2019-02-22T07:24:20.801Z,8.92
2019-02-22T07:26:48.224Z,8.88
2019-02-22T07:29:15.576Z,8.97
2019-02-22T07:31:43.001Z,8.94
2019-02-22T07:34:10.374Z,8.91
2019-02-22T07:36:37.775Z,8.88
2019-02-22T07:39:05.983Z,8.83
2019-02-22T07:41:33.436Z,8.80
2019-02-22T07:44:00.838Z,8.92
2019-02-22T07:46:28.253Z,8.88
2019-02-22T07:48:55.776Z,8.99
2019-02-22T07:51:23.261Z,9.00
2019-02-22T07:53:50.646Z,8.98
2019-02-22T07:56:19.179Z,8.99
2019-02-22T07:58:46.844Z,9.03
2019-02-22T08:01:14.291Z,9.11
2019-02-22T08:03:41.703Z,9.02
2019-02-22T08:06:09.122Z,9.07
2019-02-22T08:08:36.476Z,9.09
2019-02-22T08:11:03.968Z,9.04
2019-02-22T08:13:31.370Z,9.15
2019-02-22T08:15:58.857Z,8.99
2019-02-22T08:18:26.247Z,9.01
2019-02-22T08:20:53.691Z,8.98
2019-02-22T08:23:21.066Z,8.99
2019-02-22T08:25:48.508Z,8.96
2019-02-22T08:28:15.941Z,8.94
2019-02-22T08:30:43.323Z,8.93
2019-02-22T08:33:10.776Z,8.83
2019-02-22T08:35:38.127Z,8.89
2019-02-22T08:38:05.599Z,8.91
2019-02-22T08:40:32.967Z,8.95
2019-02-22T08:43:00.371Z,8.88
2019-02-22T08:45:27.778Z,8.82
2019-02-22T08:47:55.542Z,8.75
2019-02-22T08:50:22.916Z,8.77
2019-02-22T08:52:50.377Z,8.87
2019-02-22T08:55:17.778Z,8.86
2019-02-22T08:57:45.229Z,8.75
2019-02-22T09:00:14.086Z,8.82
2019-02-22T09:02:41.511Z,8.63
2019-02-22T09:05:08.874Z,8.68
2019-02-22T09:07:36.311Z,8.54
2019-02-22T09:10:04.481Z,8.54
2019-02-22T09:12:31.928Z,8.55
2019-02-22T09:14:59.308Z,8.42
2019-02-22T09:17:26.708Z,8.43
2019-02-22T09:19:54.048Z,8.34
2019-02-22T09:22:23.098Z,8.34
2019-02-22T09:24:50.824Z,8.43
2019-02-22T09:27:18.258Z,8.43
2019-02-22T09:29:45.610Z,8.53
2019-02-22T09:32:13.022Z,8.51
2019-02-22T09:34:40.819Z,8.55
2019-02-22T09:37:08.218Z,8.55
2019-02-22T09:39:35.582Z,8.62
2019-02-22T09:42:03.003Z,8.56
2019-02-22T09:44:30.382Z,8.57
2019-02-22T09:46:58.840Z,8.78
2019-02-22T09:49:26.238Z,8.76
2019-02-22T09:51:53.621Z,8.80
2019-02-22T09:54:21.037Z,8.91
2019-02-22T09:56:48.410Z,8.82
2019-02-22T09:59:15.929Z,8.78
2019-02-22T10:01:43.370Z,8.81
2019-02-22T10:04:10.935Z,8.64
2019-02-22T10:06:38.287Z,8.72
2019-02-22T10:09:06.158Z,8.76
2019-02-22T10:11:33.539Z,8.65
2019-02-22T10:14:06.595Z,8.64
2019-02-22T10:16:30.203Z,8.74
2019-02-22T10:18:57.882Z,8.69
2019-02-22T10:21:25.238Z,8.69
2019-02-22T10:23:52.803Z,8.71
2019-02-22T10:26:21.485Z,8.65
2019-02-22T10:28:49.100Z,8.59
2019-02-22T10:31:16.819Z,8.58
2019-02-22T10:33:44.227Z,8.51
2019-02-22T10:36:11.758Z,8.39
2019-02-22T10:38:39.148Z,8.31
2019-02-22T10:41:06.489Z,8.37
2019-02-22T10:43:33.919Z,8.33
2019-02-22T10:46:01.296Z,8.32
2019-02-22T10:48:28.741Z,8.35
2019-02-22T10:50:56.130Z,8.45
2019-02-22T10:53:23.713Z,8.59
2019-02-22T10:55:51.083Z,8.66
2019-02-22T10:58:19.181Z,8.73
2019-02-22T11:00:46.558Z,8.76
2019-02-22T11:03:13.984Z,8.79
2019-02-22T11:05:41.730Z,8.89
2019-02-22T11:08:09.178Z,8.93
2019-02-22T11:10:36.565Z,8.89
2019-02-22T11:13:03.943Z,8.94
2019-02-22T11:15:31.384Z,9.04
2019-02-22T11:17:59.094Z,9.10
2019-02-22T11:20:26.533Z,9.19
2019-02-22T11:22:53.913Z,9.21
2019-02-22T11:25:21.389Z,9.24
2019-02-22T11:27:48.773Z,9.11
2019-02-22T11:30:16.327Z,8.91
2019-02-22T11:32:43.735Z,8.79
2019-02-22T11:35:11.188Z,8.82
2019-02-22T11:37:38.620Z,8.75
2019-02-22T11:40:06.024Z,8.71
2019-02-22T11:42:33.408Z,8.91
2019-02-22T11:45:00.843Z,9.03
2019-02-22T11:47:28.316Z,9.16
2019-02-22T11:49:55.764Z,9.22
2019-02-22T11:52:23.148Z,9.26
2019-02-22T11:54:50.569Z,9.36
2019-02-22T11:57:19.584Z,9.41
2019-02-22T11:59:47.238Z,9.11
2019-02-22T12:02:14.646Z,9.14
2019-02-22T12:04:42.078Z,9.23
2019-02-22T12:07:10.563Z,9.45
2019-02-22T12:09:37.968Z,9.52
2019-02-22T12:12:05.365Z,9.73
2019-02-22T12:14:32.798Z,9.79
2019-02-22T12:17:00.602Z,9.68
2019-02-22T12:19:28.173Z,9.52
2019-02-22T12:21:55.573Z,9.80
2019-02-22T12:24:23.049Z,9.91
2019-02-22T12:26:50.459Z,9.88
2019-02-22T12:29:17.858Z,9.99
2019-02-22T12:31:45.290Z,9.87
2019-02-22T12:34:13.793Z,9.69
2019-02-22T12:36:41.328Z,9.82
2019-02-22T12:39:08.918Z,9.82
2019-02-22T12:41:36.346Z,9.78
2019-02-22T12:44:03.967Z,9.68
2019-02-22T12:46:31.443Z,9.87
2019-02-22T12:48:58.859Z,9.82
2019-02-22T12:51:26.309Z,9.93
2019-02-22T12:53:53.665Z,9.91
2019-02-22T12:56:27.513Z,9.85
2019-02-22T12:58:50.790Z,9.77
2019-02-22T13:01:18.308Z,9.70
2019-02-22T13:03:46.038Z,9.71
2019-02-22T13:06:13.628Z,9.67
2019-02-22T13:08:41.000Z,9.64
2019-02-22T13:11:09.623Z,9.80
2019-02-22T13:13:37.149Z,9.72
2019-02-22T13:16:12.457Z,9.65
2019-02-22T13:18:39.885Z,9.55
2019-02-22T13:21:07.400Z,9.52
2019-02-22T13:23:34.879Z,9.53
2019-02-22T13:26:02.562Z,9.56
2019-02-22T13:28:30.135Z,9.47
2019-02-22T13:30:57.660Z,9.53
2019-02-22T13:33:25.125Z,9.61
2019-02-22T13:35:52.685Z,9.50
2019-02-22T13:38:20.345Z,9.62
2019-02-22T13:40:49.310Z,9.72
2019-02-22T13:43:17.075Z,9.71
2019-02-22T13:45:44.684Z,9.66
2019-02-22T13:48:12.245Z,9.79
2019-02-22T13:50:39.658Z,9.73
2019-02-22T13:53:08.285Z,9.78
2019-02-22T13:55:35.693Z,9.88
2019-02-22T13:58:05.520Z,9.89
2019-02-22T14:00:33.157Z,9.86
2019-02-22T14:03:00.746Z,9.76
2019-02-22T14:05:28.408Z,9.83
2019-02-22T14:07:56.160Z,9.72
2019-02-22T14:10:24.181Z,9.59
2019-02-22T14:12:51.788Z,9.62
2019-02-22T14:15:19.446Z,9.62
2019-02-22T14:17:47.027Z,9.56
2019-02-22T14:20:14.650Z,9.48
2019-02-22T14:22:42.266Z,9.47
2019-02-22T14:25:10.186Z,9.52
2019-02-22T14:27:37.928Z,9.45
2019-02-22T14:30:06.776Z,9.42
2019-02-22T14:32:34.370Z,9.25
2019-02-22T14:35:02.149Z,9.25
2019-02-22T14:37:31.818Z,9.20
2019-02-22T14:40:03.424Z,9.26
2019-02-22T14:42:29.492Z,9.19
2019-02-22T14:44:57.120Z,9.19
2019-02-22T14:47:24.791Z,9.06
2019-02-22T14:49:55.055Z,9.00
2019-02-22T14:52:22.924Z,9.02
2019-02-22T14:54:50.829Z,9.03
2019-02-22T14:57:18.860Z,8.95
2019-02-22T14:59:47.776Z,8.98
2019-02-22T15:02:15.616Z,9.03
2019-02-22T15:04:43.407Z,9.06
2019-02-22T15:07:11.218Z,9.01
2019-02-22T15:09:39.105Z,9.08
2019-02-22T15:12:07.551Z,8.89
2019-02-22T15:14:35.355Z,8.54
2019-02-22T15:17:22.659Z,8.49
2019-02-22T15:19:50.696Z,8.41
2019-02-22T15:22:21.535Z,8.30
2019-02-22T15:24:49.440Z,8.30
2019-02-22T15:27:17.600Z,8.28
2019-02-22T15:29:45.270Z,8.17
2019-02-22T15:32:13.316Z,8.14
2019-02-22T15:34:41.495Z,8.06
2019-02-22T15:37:09.445Z,8.01
2019-02-22T15:39:37.093Z,7.99
2019-02-22T15:42:05.259Z,7.95
2019-02-22T15:44:33.218Z,7.84
2019-02-22T15:47:11.385Z,7.84
2019-02-22T15:49:31.486Z,7.75
2019-02-22T15:51:59.111Z,7.86
2019-02-22T15:54:26.901Z,7.82
2019-02-22T15:56:54.421Z,7.80
2019-02-22T15:59:22.207Z,7.82
2019-02-22T16:01:55.167Z,7.75
2019-02-22T16:04:34.899Z,7.72
2019-02-22T16:07:02.512Z,7.69
2019-02-22T16:09:30.405Z,7.57
2019-02-22T16:11:58.135Z,7.53
2019-02-22T16:14:25.986Z,7.43
2019-02-22T16:16:53.762Z,7.50
2019-02-22T16:19:21.796Z,7.47
2019-02-22T16:21:49.560Z,7.42
2019-02-22T16:24:17.401Z,7.34
2019-02-22T16:26:45.206Z,7.31
2019-02-22T16:29:12.911Z,7.27
2019-02-22T16:31:40.587Z,7.08
2019-02-22T16:34:08.665Z,7.08
2019-02-22T16:36:36.452Z,7.14
2019-02-22T16:39:07.041Z,7.06
2019-02-22T16:41:34.901Z,7.07
2019-02-22T16:44:02.636Z,6.94
2019-02-22T16:46:35.195Z,6.99
2019-02-22T16:49:01.974Z,6.98
2019-02-22T16:51:29.828Z,6.85
2019-02-22T16:53:59.200Z,6.78
2019-02-22T16:56:26.896Z,6.84
2019-02-22T16:58:54.720Z,6.86
2019-02-22T17:01:22.390Z,6.83
2019-02-22T17:03:50.140Z,6.83
2019-02-22T17:06:17.990Z,6.84
2019-02-22T17:08:45.746Z,6.84
2019-02-22T17:11:13.672Z,6.78
2019-02-22T17:13:41.485Z,6.68
2019-02-22T17:16:09.650Z,6.73
2019-02-22T17:18:37.810Z,6.72
2019-02-22T17:21:05.744Z,6.70
2019-02-22T17:23:33.500Z,6.64
2019-02-22T17:26:01.666Z,6.64
2019-02-22T17:28:29.690Z,6.67
2019-02-22T17:30:57.666Z,6.72
2019-02-22T17:33:25.482Z,6.71
2019-02-22T17:35:53.305Z,6.69
2019-02-22T17:38:20.986Z,6.58
2019-02-22T17:40:48.882Z,6.59
2019-02-22T17:43:16.700Z,6.52
2019-02-22T17:45:45.125Z,6.49
2019-02-22T17:48:12.810Z,6.50
2019-02-22T17:50:40.670Z,6.41
2019-02-22T17:53:09.106Z,6.47
2019-02-22T17:55:36.925Z,6.34
2019-02-22T17:58:04.798Z,6.37
2019-02-22T18:00:32.533Z,6.30
2019-02-22T18:03:00.290Z,6.24
2019-02-22T18:05:28.045Z,6.22
2019-02-22T18:07:55.859Z,6.20
2019-02-22T18:10:23.605Z,6.18
2019-02-22T18:12:51.292Z,6.20
2019-02-22T18:15:19.525Z,6.10
2019-02-22T18:17:47.302Z,6.13
2019-02-22T18:20:15.242Z,6.11
2019-02-22T18:22:43.188Z,6.09
2019-02-22T18:25:11.286Z,6.07
2019-02-22T18:27:39.080Z,6.10
2019-02-22T18:30:08.395Z,6.02
2019-02-22T18:32:36.190Z,5.99
2019-02-22T18:35:04.416Z,5.98
2019-02-22T18:37:33.525Z,6.00
2019-02-22T18:40:01.447Z,5.99
2019-02-22T18:42:29.286Z,5.92
2019-02-22T18:44:57.168Z,6.00
2019-02-22T18:47:24.916Z,5.92
2019-02-22T18:49:52.737Z,5.90
2019-02-22T18:52:20.706Z,5.82
2019-02-22T18:54:48.506Z,5.84
2019-02-22T18:57:16.370Z,5.80
2019-02-22T18:59:44.025Z,5.71
2019-02-22T19:02:14.246Z,5.65
2019-02-22T19:04:42.230Z,5.67
2019-02-22T19:07:10.211Z,5.63
2019-02-22T19:09:38.109Z,5.52
2019-02-22T19:12:06.125Z,5.47
2019-02-22T19:14:33.922Z,5.44
2019-02-22T19:17:03.606Z,5.41
2019-02-22T19:19:31.608Z,5.29
2019-02-22T19:21:59.413Z,5.20
2019-02-22T19:24:33.283Z,5.07
2019-02-22T19:27:01.196Z,5.07
2019-02-22T19:29:30.445Z,4.92
2019-02-22T19:31:58.315Z,4.90
2019-02-22T19:34:26.145Z,4.83
2019-02-22T19:36:54.211Z,4.85
2019-02-22T19:39:22.140Z,4.80
2019-02-22T19:41:50.196Z,4.79
2019-02-22T19:44:18.195Z,4.76
2019-02-22T19:46:46.135Z,4.70
2019-02-22T19:49:14.065Z,4.61
2019-02-22T19:51:42.145Z,4.58
2019-02-22T19:54:10.105Z,4.54
2019-02-22T19:56:37.966Z,4.40
2019-02-22T19:59:08.564Z,4.39
2019-02-22T20:01:36.440Z,4.37
2019-02-22T20:04:06.925Z,4.30
2019-02-22T20:06:35.030Z,4.29
2019-02-22T20:09:05.605Z,4.18
2019-02-22T20:11:33.486Z,4.13
2019-02-22T20:14:01.451Z,4.12
2019-02-22T20:16:29.371Z,4.08
2019-02-22T20:18:57.150Z,4.01
2019-02-22T20:21:25.455Z,4.02
2019-02-22T20:23:53.805Z,3.97
2019-02-22T20:26:22.886Z,3.95
2019-02-22T20:28:50.866Z,3.91
2019-02-22T20:31:20.553Z,3.84
2019-02-22T20:33:48.785Z,3.74
2019-02-22T20:36:27.730Z,3.81
2019-02-22T20:38:48.146Z,3.78
2019-02-22T20:41:15.924Z,3.74
2019-02-22T20:43:43.925Z,3.68
2019-02-22T20:46:12.196Z,3.77
2019-02-22T20:48:40.545Z,3.79
2019-02-22T20:51:08.405Z,3.75
2019-02-22T20:53:36.280Z,3.77
2019-02-22T20:56:04.245Z,3.77
2019-02-22T20:58:32.029Z,3.67
2019-02-22T21:00:59.740Z,3.70
2019-02-22T21:03:27.525Z,3.65
2019-02-22T21:05:55.305Z,3.72
2019-02-22T21:08:24.772Z,3.69
2019-02-22T21:10:52.796Z,3.67
2019-02-22T21:13:20.841Z,3.80
2019-02-22T21:15:48.721Z,3.77
2019-02-22T21:18:16.789Z,3.78
2019-02-22T21:20:44.715Z,3.74
2019-02-22T21:23:12.671Z,3.80
2019-02-22T21:25:40.639Z,3.67
2019-02-22T21:28:08.438Z,3.61
2019-02-22T21:30:36.115Z,3.67
2019-02-22T21:33:04.000Z,3.51
2019-02-22T21:35:31.856Z,3.55
2019-02-22T21:37:59.721Z,3.56
2019-02-22T21:40:30.631Z,3.62
2019-02-22T21:42:58.385Z,3.59
2019-02-22T21:45:26.245Z,3.60
2019-02-22T21:47:55.766Z,3.59
2019-02-22T21:50:23.725Z,3.60
2019-02-22T21:52:51.459Z,3.54
2019-02-22T21:55:19.256Z,3.61
2019-02-22T21:57:47.155Z,3.53
2019-02-22T22:00:16.750Z,3.47
2019-02-22T22:02:44.317Z,3.56
2019-02-22T22:05:11.890Z,3.67
2019-02-22T22:07:39.519Z,3.70
2019-02-22T22:10:07.270Z,3.72
2019-02-22T22:12:34.676Z,3.71
2019-02-22T22:15:02.130Z,3.76
2019-02-22T22:17:29.682Z,3.73
2019-02-22T22:19:57.115Z,3.77
2019-02-22T22:22:24.640Z,3.81
2019-02-22T22:24:52.391Z,3.86
2019-02-22T22:27:19.825Z,3.85
2019-02-22T22:29:47.236Z,3.89
2019-02-22T22:32:14.986Z,3.87
2019-02-22T22:34:42.655Z,3.86
2019-02-22T22:37:14.688Z,3.96
2019-02-22T22:39:42.248Z,3.94
2019-02-22T22:42:09.631Z,4.03
2019-02-22T22:44:37.360Z,4.05
2019-02-22T22:47:04.727Z,4.07
2019-02-22T22:49:32.136Z,4.09
2019-02-22T22:51:59.473Z,4.12
2019-02-22T22:54:26.870Z,4.13
2019-02-22T22:56:54.245Z,4.12
2019-02-22T22:59:21.805Z,4.18
2019-02-22T23:01:49.229Z,4.19
2019-02-22T23:04:16.586Z,4.14
2019-02-22T23:06:44.035Z,4.17
2019-02-22T23:09:19.891Z,4.19
2019-02-22T23:11:47.325Z,4.14
2019-02-22T23:14:14.715Z,4.15
2019-02-22T23:16:42.135Z,4.19
2019-02-22T23:19:09.550Z,4.20
2019-02-22T23:21:36.990Z,4.14
2019-02-22T23:24:04.428Z,4.14
2019-02-22T23:26:31.876Z,4.21
2019-02-22T23:29:01.764Z,4.19
2019-02-22T23:31:28.940Z,4.17
2019-02-22T23:33:56.297Z,4.13
2019-02-22T23:36:24.189Z,4.16
2019-02-22T23:38:51.547Z,4.20
2019-02-22T23:41:18.956Z,4.23
2019-02-22T23:43:46.320Z,4.17
2019-02-22T23:46:13.735Z,4.19
2019-02-22T23:48:41.110Z,4.28
2019-02-22T23:51:08.530Z,4.27
2019-02-22T23:53:35.931Z,4.36
2019-02-22T23:56:03.320Z,4.30
2019-02-22T23:58:30.755Z,4.33
